createdAt,value
2018-03-04T00:00:22.299Z,96473.13
2018-03-04T00:02:49.894Z,96478.46
2018-03-04T00:05:17.594Z,96483.05
2018-03-04T00:07:45.163Z,96486.02
2018-03-04T00:10:12.913Z,96495.03
2018-03-04T00:12:40.554Z,96497.34
2018-03-04T00:15:08.263Z,96501.45
2018-03-04T00:17:36.129Z,96497.53
2018-03-04T00:20:03.778Z,96493.13
2018-03-04T00:22:41.493Z,96500.75
2018-03-04T00:25:09.243Z,96505.17
2018-03-04T00:27:37.083Z,96502.06
2018-03-04T00:30:04.619Z,96507.11
2018-03-04T00:32:32.158Z,96504.52
2018-03-04T00:34:59.801Z,96502.41
2018-03-04T00:37:27.343Z,96507.19
2018-03-04T00:39:54.954Z,96507.49
2018-03-04T00:42:22.584Z,96507.47
2018-03-04T00:44:50.139Z,96509.00
2018-03-04T00:47:18.042Z,96499.36
2018-03-04T00:49:45.863Z,96511.69
2018-03-04T00:52:13.549Z,96508.41
2018-03-04T00:54:41.280Z,96506.02
2018-03-04T00:57:08.972Z,96501.83
2018-03-04T00:59:36.549Z,96512.27
2018-03-04T01:02:04.295Z,96513.52
2018-03-04T01:04:31.981Z,96514.33
2018-03-04T01:07:00.030Z,96511.67
2018-03-04T01:09:27.600Z,96516.74
2018-03-04T01:11:55.162Z,96515.70
2018-03-04T01:14:22.754Z,96514.50
2018-03-04T01:16:50.288Z,96508.14
2018-03-04T01:19:17.836Z,96519.34
2018-03-04T01:21:45.397Z,96513.08
2018-03-04T01:24:13.009Z,96509.86
2018-03-04T01:26:40.705Z,96506.09
2018-03-04T01:29:08.639Z,96512.05
2018-03-04T01:31:36.318Z,96506.84
2018-03-04T01:34:04.004Z,96510.36
2018-03-04T01:36:31.544Z,96513.44
2018-03-04T01:38:59.139Z,96514.00
2018-03-04T01:41:27.060Z,96515.48
2018-03-04T01:43:54.700Z,96508.84
2018-03-04T01:46:22.344Z,96507.36
2018-03-04T01:48:50.018Z,96514.20
2018-03-04T01:51:17.864Z,96512.90
2018-03-04T01:53:45.585Z,96510.04
2018-03-04T01:56:13.205Z,96507.12
2018-03-04T01:58:40.834Z,96517.04
2018-03-04T02:01:08.419Z,96517.27
2018-03-04T02:03:35.991Z,96518.93
2018-03-04T02:06:03.698Z,96521.66
2018-03-04T02:08:31.449Z,96511.72
2018-03-04T02:10:59.224Z,96511.30
2018-03-04T02:13:26.955Z,96500.04
2018-03-04T02:15:54.887Z,96497.11
2018-03-04T02:18:22.655Z,96495.95
2018-03-04T02:20:50.174Z,96498.19
2018-03-04T02:23:18.325Z,96502.71
2018-03-04T02:25:46.574Z,96502.63
2018-03-04T02:28:14.130Z,96501.30
2018-03-04T02:30:42.009Z,96504.14
2018-03-04T02:33:09.685Z,96496.17
2018-03-04T02:35:37.529Z,96505.59
2018-03-04T02:38:05.071Z,96504.28
2018-03-04T02:40:32.628Z,96498.17
2018-03-04T02:43:00.260Z,96494.45
2018-03-04T02:45:27.820Z,96492.59
2018-03-04T02:47:55.353Z,96497.23
2018-03-04T02:50:22.898Z,96493.13
2018-03-04T02:52:50.483Z,96495.52
2018-03-04T02:55:18.176Z,96491.91
2018-03-04T02:57:45.848Z,96485.83
2018-03-04T03:00:13.410Z,96492.61
2018-03-04T03:02:41.000Z,96491.69
2018-03-04T03:05:08.639Z,96483.83
2018-03-04T03:07:36.410Z,96484.84
2018-03-04T03:10:04.088Z,96485.66
2018-03-04T03:12:31.772Z,96482.84
2018-03-04T03:14:59.304Z,96485.16
2018-03-04T03:17:27.400Z,96477.22
2018-03-04T03:19:55.155Z,96477.75
2018-03-04T03:22:22.689Z,96474.56
2018-03-04T03:24:50.304Z,96474.81
2018-03-04T03:27:18.853Z,96482.39
2018-03-04T03:29:46.520Z,96475.06
2018-03-04T03:32:14.423Z,96470.43
2018-03-04T03:34:41.938Z,96484.39
2018-03-04T03:37:09.583Z,96478.14
2018-03-04T03:39:37.230Z,96473.11
2018-03-04T03:42:05.583Z,96474.83
2018-03-04T03:44:33.269Z,96478.26
2018-03-04T03:47:00.939Z,96466.22
2018-03-04T03:49:28.553Z,96457.31
2018-03-04T03:51:56.145Z,96454.14
2018-03-04T03:54:23.764Z,96465.41
2018-03-04T03:56:51.578Z,96463.92
2018-03-04T03:59:19.213Z,96463.69
2018-03-04T04:01:47.153Z,96467.94
2018-03-04T04:04:15.430Z,96471.23
2018-03-04T04:06:43.517Z,96466.08
2018-03-04T04:09:11.043Z,96470.70
2018-03-04T04:11:38.608Z,96469.36
2018-03-04T04:14:06.320Z,96475.00
2018-03-04T04:16:33.873Z,96462.34
2018-03-04T04:19:01.708Z,96465.37
2018-03-04T04:21:29.245Z,96470.63
2018-03-04T04:23:57.738Z,96470.54
2018-03-04T04:26:25.324Z,96466.95
2018-03-04T04:28:52.981Z,96477.82
2018-03-04T04:31:20.833Z,96464.66
2018-03-04T04:33:48.553Z,96461.57
2018-03-04T04:36:16.177Z,96458.02
2018-03-04T04:38:43.812Z,96453.94
2018-03-04T04:41:12.607Z,96458.45
2018-03-04T04:43:40.479Z,96452.06
2018-03-04T04:46:08.290Z,96442.83
2018-03-04T04:48:35.829Z,96448.77
2018-03-04T04:51:03.464Z,96446.63
2018-03-04T04:53:31.159Z,96444.89
2018-03-04T04:55:58.798Z,96453.38
2018-03-04T04:58:26.470Z,96444.91
2018-03-04T05:00:54.063Z,96451.36
2018-03-04T05:03:21.605Z,96447.73
2018-03-04T05:05:49.234Z,96448.66
2018-03-04T05:08:17.069Z,96447.36
2018-03-04T05:10:44.647Z,96446.73
2018-03-04T05:13:12.293Z,96445.73
2018-03-04T05:15:39.928Z,96454.97
2018-03-04T05:18:08.418Z,96449.69
2018-03-04T05:20:36.228Z,96454.66
2018-03-04T05:23:03.942Z,96451.23
2018-03-04T05:25:31.474Z,96445.58
2018-03-04T05:27:59.054Z,96444.19
2018-03-04T05:30:26.621Z,96451.84
2018-03-04T05:32:54.330Z,96453.73
2018-03-04T05:35:21.968Z,96454.06
2018-03-04T05:37:50.623Z,96458.07
2018-03-04T05:40:18.232Z,96458.51
2018-03-04T05:42:45.809Z,96466.55
2018-03-04T05:45:13.740Z,96467.91
2018-03-04T05:47:41.540Z,96457.23
2018-03-04T05:50:09.243Z,96446.11
2018-03-04T05:52:36.784Z,96443.92
2018-03-04T05:55:04.443Z,96445.31
2018-03-04T05:57:32.074Z,96447.60
2018-03-04T06:00:00.548Z,96445.05
2018-03-04T06:02:28.285Z,96445.67
2018-03-04T06:04:55.822Z,96444.20
2018-03-04T06:07:23.619Z,96450.19
2018-03-04T06:09:51.303Z,96448.70
2018-03-04T06:12:19.056Z,96451.23
2018-03-04T06:14:46.689Z,96450.47
2018-03-04T06:17:14.213Z,96455.77
2018-03-04T06:19:41.749Z,96454.88
2018-03-04T06:22:09.769Z,96455.55
2018-03-04T06:24:37.530Z,96465.94
2018-03-04T06:27:05.149Z,96462.09
2018-03-04T06:29:33.000Z,96458.10
2018-03-04T06:32:00.638Z,96455.73
2018-03-04T06:34:28.180Z,96459.26
2018-03-04T06:36:55.925Z,96462.31
2018-03-04T06:39:23.457Z,96453.51
2018-03-04T06:41:51.329Z,96454.99
2018-03-04T06:44:18.991Z,96456.20
2018-03-04T06:46:46.693Z,96449.04
2018-03-04T06:49:14.730Z,96446.63
2018-03-04T06:51:42.443Z,96448.08
2018-03-04T06:54:10.003Z,96449.92
2018-03-04T06:56:37.844Z,96451.85
2018-03-04T06:59:05.388Z,96460.88
2018-03-04T07:01:32.940Z,96455.19
2018-03-04T07:04:00.584Z,96459.17
2018-03-04T07:06:28.144Z,96450.92
2018-03-04T07:08:55.708Z,96450.24
2018-03-04T07:11:23.249Z,96446.22
2018-03-04T07:13:50.798Z,96443.63
2018-03-04T07:16:18.368Z,96437.97
2018-03-04T07:18:46.608Z,96440.77
2018-03-04T07:21:14.220Z,96436.48
2018-03-04T07:23:41.904Z,96430.39
2018-03-04T07:26:09.638Z,96429.13
2018-03-04T07:28:37.292Z,96431.40
2018-03-04T07:31:05.054Z,96436.37
2018-03-04T07:33:32.708Z,96432.05
2018-03-04T07:36:00.293Z,96438.16
2018-03-04T07:38:27.855Z,96442.75
2018-03-04T07:40:55.638Z,96432.94
2018-03-04T07:43:23.179Z,96443.23
2018-03-04T07:45:50.912Z,96441.06
2018-03-04T07:48:18.744Z,96442.88
2018-03-04T07:50:46.278Z,96441.08
2018-03-04T07:53:14.884Z,96438.67
2018-03-04T07:55:42.423Z,96432.36
2018-03-04T07:58:10.090Z,96420.46
2018-03-04T08:00:38.630Z,96422.18
2018-03-04T08:03:07.173Z,96416.48
2018-03-04T08:05:34.900Z,96409.09
2018-03-04T08:08:02.565Z,96413.31
2018-03-04T08:10:30.389Z,96401.68
2018-03-04T08:12:58.127Z,96411.17
2018-03-04T08:15:25.758Z,96408.48
2018-03-04T08:17:53.414Z,96403.44
2018-03-04T08:20:21.165Z,96406.40
2018-03-04T08:22:48.734Z,96398.64
2018-03-04T08:25:28.258Z,96403.48
2018-03-04T08:28:07.924Z,96403.13
2018-03-04T08:30:35.612Z,96413.16
2018-03-04T08:33:03.192Z,96408.78
2018-03-04T08:35:31.102Z,96389.92
2018-03-04T08:37:58.649Z,96390.54
2018-03-04T08:40:26.404Z,96385.48
2018-03-04T08:42:54.029Z,96383.34
2018-03-04T08:45:21.799Z,96387.98
2018-03-04T08:47:49.359Z,96396.75
2018-03-04T08:50:17.219Z,96391.00
2018-03-04T08:52:44.869Z,96393.86
2018-03-04T08:55:12.589Z,96390.69
2018-03-04T08:57:40.275Z,96391.13
2018-03-04T09:00:08.805Z,96389.58
2018-03-04T09:02:36.558Z,96397.52
2018-03-04T09:05:04.114Z,96393.17
2018-03-04T09:07:31.907Z,96386.31
2018-03-04T09:09:59.462Z,96393.91
2018-03-04T09:12:27.200Z,96389.47
2018-03-04T09:14:54.754Z,96393.31
2018-03-04T09:17:22.554Z,96400.59
2018-03-04T09:19:50.234Z,96406.02
2018-03-04T09:22:17.875Z,96413.59
2018-03-04T09:24:45.490Z,96403.53
2018-03-04T09:27:13.504Z,96395.67
2018-03-04T09:29:41.069Z,96390.88
2018-03-04T09:32:08.731Z,96394.59
2018-03-04T09:34:36.245Z,96379.46
2018-03-04T09:37:03.879Z,96361.19
2018-03-04T09:39:31.546Z,96357.25
2018-03-04T09:41:59.134Z,96345.46
2018-03-04T09:44:26.824Z,96338.92
2018-03-04T09:46:55.388Z,96336.43
2018-03-04T09:49:23.015Z,96350.73
2018-03-04T09:51:50.870Z,96349.83
2018-03-04T09:54:18.609Z,96341.83
2018-03-04T09:56:46.392Z,96340.57
2018-03-04T09:59:14.054Z,96332.84
2018-03-04T10:01:41.810Z,96323.28
2018-03-04T10:04:09.376Z,96324.86
2018-03-04T10:06:37.193Z,96323.20
2018-03-04T10:09:04.813Z,96312.53
2018-03-04T10:11:32.759Z,96306.72
2018-03-04T10:14:00.309Z,96299.20
2018-03-04T10:16:27.928Z,96286.97
2018-03-04T10:18:55.948Z,96295.65
2018-03-04T10:21:23.722Z,96294.48
2018-03-04T10:23:51.408Z,96294.51
2018-03-04T10:26:18.970Z,96290.07
2018-03-04T10:28:46.729Z,96276.77
2018-03-04T10:31:14.469Z,96276.77
2018-03-04T10:33:42.129Z,96275.22
2018-03-04T10:36:09.766Z,96275.11
2018-03-04T10:38:37.535Z,96266.34
2018-03-04T10:41:06.098Z,96272.48
2018-03-04T10:43:33.806Z,96283.46
2018-03-04T10:46:01.678Z,96285.47
2018-03-04T10:48:29.310Z,96297.70
2018-03-04T10:50:56.859Z,96295.99
2018-03-04T10:53:24.573Z,96294.28
2018-03-04T10:55:52.103Z,96289.11
2018-03-04T10:58:19.784Z,96278.29
2018-03-04T11:00:48.078Z,96278.08
2018-03-04T11:03:16.329Z,96277.10
2018-03-04T11:05:44.354Z,96279.50
2018-03-04T11:08:12.104Z,96289.41
2018-03-04T11:10:39.914Z,96286.73
2018-03-04T11:13:07.628Z,96280.17
2018-03-04T11:15:35.168Z,96292.32
2018-03-04T11:18:02.722Z,96291.27
2018-03-04T11:20:30.392Z,96295.36
2018-03-04T11:22:57.940Z,96284.00
2018-03-04T11:25:25.688Z,96285.60
2018-03-04T11:27:53.400Z,96279.48
2018-03-04T11:30:21.349Z,96276.13
2018-03-04T11:32:48.890Z,96271.22
2018-03-04T11:35:16.519Z,96261.70
2018-03-04T11:37:44.122Z,96277.77
2018-03-04T11:40:11.760Z,96262.79
2018-03-04T11:42:39.320Z,96259.31
2018-03-04T11:45:09.653Z,96260.99
2018-03-04T11:47:37.418Z,96257.05
2018-03-04T11:50:04.984Z,96238.84
2018-03-04T11:52:32.862Z,96247.16
2018-03-04T11:55:00.746Z,96253.17
2018-03-04T11:57:28.290Z,96245.06
2018-03-04T11:59:56.015Z,96246.75
2018-03-04T12:02:23.708Z,96238.95
2018-03-04T12:04:51.425Z,96244.43
2018-03-04T12:07:19.068Z,96240.70
2018-03-04T12:09:47.210Z,96230.12
2018-03-04T12:12:14.740Z,96217.64
2018-03-04T12:14:42.487Z,96215.94
2018-03-04T12:17:10.808Z,96205.70
2018-03-04T12:19:38.448Z,96197.81
2018-03-04T12:22:05.995Z,96185.77
2018-03-04T12:24:33.534Z,96165.48
2018-03-04T12:27:02.055Z,96165.27
2018-03-04T12:29:29.708Z,96160.01
2018-03-04T12:31:57.349Z,96155.37
2018-03-04T12:34:24.997Z,96152.48
2018-03-04T12:36:52.595Z,96156.08
2018-03-04T12:39:20.486Z,96149.80
2018-03-04T12:41:48.179Z,96134.42
2018-03-04T12:44:15.864Z,96137.44
2018-03-04T12:46:43.420Z,96125.95
2018-03-04T12:49:10.956Z,96132.59
2018-03-04T12:51:38.674Z,96130.37
2018-03-04T12:54:06.404Z,96132.88
2018-03-04T12:56:34.959Z,96135.90
2018-03-04T12:59:02.525Z,96142.16
2018-03-04T13:01:30.223Z,96144.56
2018-03-04T13:03:57.860Z,96139.55
2018-03-04T13:06:25.393Z,96148.97
2018-03-04T13:08:52.966Z,96148.79
2018-03-04T13:11:20.845Z,96147.45
2018-03-04T13:13:48.725Z,96142.33
2018-03-04T13:16:16.565Z,96136.13
2018-03-04T13:18:44.320Z,96125.19
2018-03-04T13:21:12.058Z,96114.80
2018-03-04T13:23:39.802Z,96111.20
2018-03-04T13:26:07.755Z,96124.94
2018-03-04T13:28:35.435Z,96121.25
2018-03-04T13:31:03.159Z,96105.55
2018-03-04T13:33:31.050Z,96105.70
2018-03-04T13:35:59.310Z,96101.36
2018-03-04T13:38:27.032Z,96101.70
2018-03-04T13:40:54.688Z,96093.31
2018-03-04T13:43:22.317Z,96096.81
2018-03-04T13:45:50.229Z,96087.12
2018-03-04T13:48:17.894Z,96078.50
2018-03-04T13:50:45.427Z,96078.22
2018-03-04T13:53:12.978Z,96085.11
2018-03-04T13:55:40.839Z,96086.52
2018-03-04T13:58:08.538Z,96087.23
2018-03-04T14:00:36.398Z,96095.46
2018-03-04T14:03:04.191Z,96095.08
2018-03-04T14:05:31.880Z,96083.48
2018-03-04T14:07:59.489Z,96066.98
2018-03-04T14:10:27.169Z,96080.60
2018-03-04T14:12:54.763Z,96065.56
2018-03-04T14:15:22.353Z,96069.92
2018-03-04T14:17:50.666Z,96071.58
2018-03-04T14:20:18.224Z,96063.80
2018-03-04T14:22:45.888Z,96062.91
2018-03-04T14:25:13.608Z,96058.96
2018-03-04T14:27:41.280Z,96053.53
2018-03-04T14:30:08.993Z,96059.18
2018-03-04T14:32:36.693Z,96059.23
2018-03-04T14:35:04.353Z,96062.88
2018-03-04T14:37:31.895Z,96061.05
2018-03-04T14:39:59.478Z,96058.91
2018-03-04T14:42:27.042Z,96078.31
2018-03-04T14:44:54.604Z,96074.63
2018-03-04T14:47:22.183Z,96071.98
2018-03-04T14:49:49.960Z,96065.47
2018-03-04T14:52:17.536Z,96058.10
2018-03-04T14:54:45.265Z,96054.53
2018-03-04T14:57:12.853Z,96057.07
2018-03-04T14:59:40.495Z,96062.78
2018-03-04T15:02:08.062Z,96047.00
2018-03-04T15:04:35.909Z,96046.17
2018-03-04T15:07:03.678Z,96043.77
2018-03-04T15:09:31.333Z,96048.27
2018-03-04T15:11:59.018Z,96033.75
2018-03-04T15:14:26.639Z,96023.45
2018-03-04T15:16:54.422Z,96027.23
2018-03-04T15:19:22.228Z,96029.25
2018-03-04T15:21:50.488Z,96028.20
2018-03-04T15:24:18.152Z,96042.45
2018-03-04T15:26:45.839Z,96039.73
2018-03-04T15:29:13.675Z,96047.61
2018-03-04T15:31:41.245Z,96046.99
2018-03-04T15:34:09.275Z,96049.28
2018-03-04T15:36:36.843Z,96049.81
2018-03-04T15:39:04.490Z,96048.94
2018-03-04T15:41:32.983Z,96056.62
2018-03-04T15:44:00.629Z,96051.18
2018-03-04T15:46:28.193Z,96049.16
2018-03-04T15:48:55.844Z,96048.03
2018-03-04T15:51:24.030Z,96052.34
2018-03-04T15:53:51.761Z,96059.28
2018-03-04T15:56:19.331Z,96070.33
2018-03-04T15:58:46.898Z,96067.08
2018-03-04T16:01:14.749Z,96071.93
2018-03-04T16:03:42.414Z,96070.36
2018-03-04T16:06:10.099Z,96062.62
2018-03-04T16:08:38.025Z,96060.70
2018-03-04T16:11:05.674Z,96054.70
2018-03-04T16:13:33.368Z,96045.42
2018-03-04T16:16:01.617Z,96040.70
2018-03-04T16:18:29.224Z,96032.23
2018-03-04T16:20:57.009Z,96028.89
2018-03-04T16:23:24.704Z,96022.83
2018-03-04T16:25:52.550Z,96024.84
2018-03-04T16:28:20.208Z,96034.79
2018-03-04T16:30:47.853Z,96033.12
2018-03-04T16:33:15.527Z,96036.19
2018-03-04T16:35:43.100Z,96033.09
2018-03-04T16:38:10.728Z,96029.52
2018-03-04T16:40:39.244Z,96028.03
2018-03-04T16:43:06.885Z,96034.27
2018-03-04T16:45:34.654Z,96030.87
2018-03-04T16:48:02.280Z,96018.61
2018-03-04T16:50:30.015Z,96017.84
2018-03-04T16:52:57.697Z,96025.25
2018-03-04T16:55:25.508Z,96018.62
2018-03-04T16:57:53.541Z,96018.19
2018-03-04T17:00:21.375Z,96009.64
2018-03-04T17:02:49.147Z,96009.34
2018-03-04T17:05:16.865Z,96010.38
2018-03-04T17:07:44.949Z,96013.19
2018-03-04T17:10:12.789Z,96003.22
2018-03-04T17:12:40.390Z,96002.45
2018-03-04T17:15:08.416Z,96005.45
2018-03-04T17:17:35.985Z,96010.93
2018-03-04T17:20:03.582Z,96006.32
2018-03-04T17:22:31.273Z,96005.61
2018-03-04T17:25:00.078Z,95998.73
2018-03-04T17:27:27.693Z,95997.06
2018-03-04T17:29:55.390Z,95989.26
2018-03-04T17:32:23.178Z,95993.14
2018-03-04T17:34:50.738Z,95990.89
2018-03-04T17:37:18.368Z,95995.94
2018-03-04T17:39:47.117Z,95984.83
2018-03-04T17:42:14.785Z,95987.94
2018-03-04T17:44:43.385Z,95984.41
2018-03-04T17:47:11.375Z,95978.03
2018-03-04T17:49:39.091Z,95974.58
2018-03-04T17:52:06.754Z,95985.03
2018-03-04T17:54:34.476Z,95985.48
2018-03-04T17:57:02.295Z,95980.25
2018-03-04T17:59:30.049Z,95991.30
2018-03-04T18:01:57.619Z,95996.30
2018-03-04T18:04:25.175Z,95997.24
2018-03-04T18:06:53.127Z,96000.73
2018-03-04T18:09:20.896Z,95991.94
2018-03-04T18:11:48.461Z,95997.19
2018-03-04T18:14:16.042Z,95991.93
2018-03-04T18:16:43.719Z,95992.42
2018-03-04T18:19:11.267Z,95986.34
2018-03-04T18:21:38.905Z,95992.82
2018-03-04T18:24:07.188Z,95992.31
2018-03-04T18:26:35.066Z,95988.14
2018-03-04T18:29:02.753Z,95988.48
2018-03-04T18:31:30.826Z,95990.78
2018-03-04T18:33:58.608Z,95994.73
2018-03-04T18:36:26.184Z,96000.41
2018-03-04T18:38:53.994Z,95992.72
2018-03-04T18:41:21.739Z,95996.18
2018-03-04T18:43:49.378Z,95995.02
2018-03-04T18:46:17.105Z,95994.06
2018-03-04T18:48:44.669Z,95997.38
2018-03-04T18:51:12.418Z,95996.05
2018-03-04T18:53:40.109Z,95995.30
2018-03-04T18:56:08.470Z,96009.28
2018-03-04T18:58:37.092Z,96001.21
2018-03-04T19:01:04.840Z,95997.58
2018-03-04T19:03:32.864Z,96013.52
2018-03-04T19:06:00.470Z,96012.16
2018-03-04T19:08:28.355Z,96016.56
2018-03-04T19:10:56.240Z,96021.11
2018-03-04T19:13:24.274Z,96019.03
2018-03-04T19:15:51.829Z,96021.80
2018-03-04T19:18:19.405Z,96015.14
2018-03-04T19:20:47.018Z,96011.57
2018-03-04T19:23:14.712Z,96015.44
2018-03-04T19:25:42.373Z,96004.70
2018-03-04T19:28:10.556Z,95994.19
2018-03-04T19:30:38.731Z,96013.86
2018-03-04T19:33:06.653Z,96030.82
2018-03-04T19:35:34.272Z,96028.95
2018-03-04T19:38:01.885Z,96038.36
2018-03-04T19:40:29.515Z,96049.97
2018-03-04T19:42:57.304Z,96055.41
2018-03-04T19:45:24.975Z,96065.08
2018-03-04T19:47:53.123Z,96064.48
2018-03-04T19:50:20.878Z,96063.94
2018-03-04T19:52:48.490Z,96072.45
2018-03-04T19:55:16.264Z,96065.28
2018-03-04T19:57:44.064Z,96071.52
2018-03-04T20:00:11.824Z,96077.50
2018-03-04T20:02:39.839Z,96074.45
2018-03-04T20:05:07.552Z,96076.37
2018-03-04T20:07:35.103Z,96055.33
2018-03-04T20:10:02.721Z,96062.04
2018-03-04T20:12:30.284Z,96075.94
2018-03-04T20:14:57.879Z,96069.69
2018-03-04T20:17:25.438Z,96076.23
2018-03-04T20:19:53.055Z,96071.05
2018-03-04T20:22:20.915Z,96082.63
2018-03-04T20:24:49.183Z,96077.31
2018-03-04T20:27:17.187Z,96088.83
2018-03-04T20:29:45.688Z,96083.58
2018-03-04T20:32:13.404Z,96088.00
2018-03-04T20:34:41.869Z,96098.31
2018-03-04T20:37:09.621Z,96101.06
2018-03-04T20:39:37.248Z,96106.31
2018-03-04T20:42:05.790Z,96124.63
2018-03-04T20:44:34.079Z,96127.50
2018-03-04T20:47:01.821Z,96126.02
2018-03-04T20:49:29.539Z,96126.59
2018-03-04T20:51:57.083Z,96130.41
2018-03-04T20:54:24.901Z,96142.45
2018-03-04T20:56:52.485Z,96142.20
2018-03-04T20:59:20.224Z,96142.20
2018-03-04T21:01:47.960Z,96150.65
2018-03-04T21:04:15.787Z,96150.91
2018-03-04T21:06:43.460Z,96155.22
2018-03-04T21:09:11.171Z,96155.30
2018-03-04T21:11:39.024Z,96154.57
2018-03-04T21:14:06.636Z,96163.47
2018-03-04T21:16:34.397Z,96160.41
2018-03-04T21:19:02.175Z,96167.19
2018-03-04T21:21:29.844Z,96166.34
2018-03-04T21:23:57.770Z,96163.88
2018-03-04T21:26:25.365Z,96170.59
2018-03-04T21:28:53.236Z,96181.44
2018-03-04T21:31:21.145Z,96170.84
2018-03-04T21:33:48.749Z,96164.33
2018-03-04T21:36:16.662Z,96148.92
2018-03-04T21:38:44.465Z,96149.14
2018-03-04T21:41:12.010Z,96157.64
2018-03-04T21:43:39.578Z,96164.70
2018-03-04T21:46:07.400Z,96163.71
2018-03-04T21:48:35.910Z,96166.98
2018-03-04T21:51:03.484Z,96168.80
2018-03-04T21:53:31.383Z,96168.08
2018-03-04T21:55:59.266Z,96178.19
2018-03-04T21:58:26.916Z,96178.55
2018-03-04T22:00:54.658Z,96188.63
2018-03-04T22:03:22.299Z,96191.42
2018-03-04T22:05:49.955Z,96180.47
2018-03-04T22:08:17.708Z,96184.69
2018-03-04T22:10:45.744Z,96182.45
2018-03-04T22:13:13.281Z,96193.70
2018-03-04T22:15:41.268Z,96210.21
2018-03-04T22:18:08.834Z,96215.53
2018-03-04T22:20:36.470Z,96217.03
2018-03-04T22:23:05.074Z,96220.08
2018-03-04T22:25:32.898Z,96223.09
2018-03-04T22:28:00.456Z,96227.56
2018-03-04T22:30:28.709Z,96227.84
2018-03-04T22:32:56.384Z,96243.69
2018-03-04T22:35:23.940Z,96244.30
2018-03-04T22:37:51.566Z,96246.07
2018-03-04T22:40:19.354Z,96242.17
2018-03-04T22:42:47.034Z,96234.59
2018-03-04T22:45:14.747Z,96233.02
2018-03-04T22:47:42.526Z,96234.91
2018-03-04T22:50:10.192Z,96245.05
2018-03-04T22:52:37.861Z,96245.91
2018-03-04T22:55:05.534Z,96253.67
2018-03-04T22:57:33.135Z,96256.23
2018-03-04T23:00:01.224Z,96262.62
2018-03-04T23:02:28.761Z,96266.37
2018-03-04T23:04:56.313Z,96278.53
2018-03-04T23:07:24.513Z,96278.77
2018-03-04T23:09:52.198Z,96279.73
2018-03-04T23:12:19.865Z,96274.35
2018-03-04T23:14:47.651Z,96274.73
2018-03-04T23:17:15.368Z,96277.91
2018-03-04T23:19:43.038Z,96273.20
2018-03-04T23:22:10.629Z,96284.02
2018-03-04T23:24:38.345Z,96300.03
2018-03-04T23:27:05.979Z,96309.99
2018-03-04T23:29:33.690Z,96312.16
2018-03-04T23:32:01.339Z,96312.02
2018-03-04T23:34:28.941Z,96310.20
2018-03-04T23:36:56.502Z,96311.07
2018-03-04T23:39:24.144Z,96317.16
2018-03-04T23:41:52.281Z,96322.78
2018-03-04T23:44:19.812Z,96331.25
2018-03-04T23:46:47.430Z,96332.17
2018-03-04T23:49:14.963Z,96325.56
2018-03-04T23:51:42.673Z,96332.17
2018-03-04T23:54:10.394Z,96334.39
2018-03-04T23:56:38.062Z,96321.63
2018-03-04T23:59:05.648Z,96329.53
